X  Sluiten METAR luchtvaart weer gegevens      EHAM Amsterdam Airport Schiphol
Temperatuur
5°C Temperatuur
4°C Dauwpunt
93% Vochtigheid



Wind
5 KM/U
3 MPH
1 M/S
3 KTS



270°
West
Huidig weer

Lichte Buien, Regen Lichte Buien, Regen
Luchtdruk 1010.92 (hPa) - 29.85 (inHg)
Zicht 4.3 (mijl) - 7 (km)
Vliegveld
Vliegveld code EHAM

Locatie : Amsterdam Airport Schiphol
Afstand: 20 (km)

Metar:
EHAM 291655Z 27003KT 7000 -SHRA SCT019CB SCT025 05/04 Q1011 BECMG NSW SCT025

Tijd: 29-11-2021 17:55 CET